Pagrindinis puslapis
METAR-TAF:

METAR-TAF

Oro uostai :

Vasa, Suomija

platuma: 63-03N, ilguma: 021-46E, Aukštis: 4 m

Dabartinis oras

Ataskaita buvo paskelbta 58 minutes, ne 22:50 UTC
Vėjas 8 kt iš Pietų
Temperatūra 18°C
Drėgmė 77%
Slėgis 1014 hPa
Matomumas 10 km arba daugiau
nėra debesų žemiau 1500 m ir nėra kamuolinių lietaus debesų

METAR: EFVA 022250Z AUTO 18008KT CAVOK 18/14 Q1014

Laikas: 02:48 (23:48 UTC)

Prognozė

Ataskaita buvo paskelbta 3 valandos ir 13 minutes, ne 20:35 UTC
Prognozė galioja nuo 02 metu 21 UTC su 03 metu 21 UTC
Vėjas 9 kt iš Pietų/Pietvakarių
Matomumas 10 km arba daugiau
Su prošvaistėmis ne aukštis 2000 ft
Tikimybė 40%
nuo 02 metu 21 UTC su 02 metu 23 UTC
Su prošvaistėmis ne aukštis 1200 ft
Mažai debesys ne aukštis 5000 ft, Liūtiniai kamuoliniai debesys.

TAF: EFVA 022035Z 0221/0321 20009KT 9999 BKN020 PROB40 0221/0223 BKN012 FEW050CB

Orai ataskaitas ir orų prognozės (METAR, TAF).

turimą stotys yra geltonos ir raudonos taškus žemėlapyje.

Perkelti pele per norėdami pamatyti stoties vardą.

Tada spustelėkite, norėdami matyti oro stebėjimo ir prognozės.

Norėdami pakeisti žemėlapį: spustelėkite ant žalios mygtukų su juodo kryžiaus žemyn,; žalią mygtuką su brūkšneliu, jei norite nutolinti; arba žalių rodyklių gretimoms žemėlapius.


METAR-TAF: